createdAt,value
2018-07-17T00:02:10.399Z,13.97
2018-07-17T00:04:39.196Z,13.67
2018-07-17T00:07:08.017Z,13.47
2018-07-17T00:09:36.845Z,11.70
2018-07-17T00:12:05.766Z,12.37
2018-07-17T00:14:34.592Z,12.03
2018-07-17T00:17:03.560Z,11.63
2018-07-17T00:19:32.347Z,12.43
2018-07-17T00:22:01.471Z,12.90
2018-07-17T00:24:30.335Z,14.43
2018-07-17T00:26:59.230Z,12.60
2018-07-17T00:29:28.085Z,11.83
2018-07-17T00:31:56.893Z,16.87
2018-07-17T00:34:25.693Z,14.97
2018-07-17T00:36:54.480Z,12.80
2018-07-17T00:39:23.273Z,12.63
2018-07-17T00:41:52.099Z,20.77
2018-07-17T00:44:20.954Z,13.47
2018-07-17T00:46:49.749Z,19.87
2018-07-17T00:49:18.558Z,14.47
2018-07-17T00:51:47.309Z,12.37
2018-07-17T00:54:16.154Z,15.03
2018-07-17T00:56:44.946Z,16.07
2018-07-17T00:59:13.753Z,17.57
2018-07-17T01:01:47.610Z,15.83
2018-07-17T01:04:21.608Z,14.40
2018-07-17T01:06:55.515Z,13.77
2018-07-17T01:09:29.627Z,14.93
2018-07-17T01:12:03.594Z,16.37
2018-07-17T01:14:37.585Z,17.23
2018-07-17T01:17:06.434Z,14.20
2018-07-17T01:19:35.185Z,18.73
2018-07-17T01:22:04.017Z,14.53
2018-07-17T01:24:32.805Z,15.37
2018-07-17T01:27:01.552Z,12.27
2018-07-17T01:29:30.366Z,12.00
2018-07-17T01:31:59.118Z,11.40
2018-07-17T01:34:27.926Z,13.13
2018-07-17T01:36:59.669Z,11.70
2018-07-17T01:39:28.453Z,13.47
2018-07-17T01:41:57.309Z,14.50
2018-07-17T01:44:26.083Z,14.30
2018-07-17T01:46:59.416Z,16.00
2018-07-17T01:49:28.246Z,13.53
2018-07-17T01:51:57.046Z,15.30
2018-07-17T01:54:25.826Z,12.63
2018-07-17T01:56:54.608Z,13.77
2018-07-17T01:59:23.400Z,12.73
2018-07-17T02:01:52.194Z,14.73
2018-07-17T02:04:20.990Z,12.00
2018-07-17T02:06:49.793Z,14.77
2018-07-17T02:09:18.860Z,12.47
2018-07-17T02:11:47.610Z,13.13
2018-07-17T02:14:16.333Z,12.27
2018-07-17T02:16:45.133Z,12.93
2018-07-17T02:19:13.945Z,12.97
2018-07-17T02:21:42.706Z,14.20
2018-07-17T02:24:11.462Z,13.73
2018-07-17T02:26:40.270Z,16.87
2018-07-17T02:29:09.048Z,14.90
2018-07-17T02:31:37.869Z,12.43
2018-07-17T02:34:06.859Z,13.57
2018-07-17T02:36:35.652Z,15.00
2018-07-17T02:39:04.633Z,13.23
2018-07-17T02:41:33.402Z,14.13
2018-07-17T02:44:02.166Z,18.40
2018-07-17T02:46:30.923Z,14.37
2018-07-17T02:48:59.674Z,13.40
2018-07-17T02:51:28.465Z,14.63
2018-07-17T02:53:57.254Z,15.47
2018-07-17T02:56:26.122Z,13.13
2018-07-17T02:58:54.912Z,14.73
2018-07-17T03:01:23.701Z,15.57
2018-07-17T03:03:52.529Z,14.00
2018-07-17T03:06:21.301Z,18.30
2018-07-17T03:08:50.603Z,16.57
2018-07-17T03:11:19.389Z,15.80
2018-07-17T03:13:48.185Z,15.13
2018-07-17T03:16:16.963Z,14.70
2018-07-17T03:18:46.209Z,14.97
2018-07-17T03:21:14.995Z,15.10
2018-07-17T03:23:43.787Z,14.00
2018-07-17T03:26:12.582Z,19.60
2018-07-17T03:28:41.382Z,14.47
2018-07-17T03:31:10.126Z,13.50
2018-07-17T03:33:38.933Z,17.50
2018-07-17T03:36:07.681Z,15.40
2018-07-17T03:38:36.803Z,13.07
2018-07-17T03:41:05.773Z,14.13
2018-07-17T03:43:34.811Z,14.50
2018-07-17T03:46:03.583Z,13.73
2018-07-17T03:48:37.640Z,13.07
2018-07-17T03:51:09.574Z,14.17
2018-07-17T03:53:39.481Z,16.77
2018-07-17T03:56:08.362Z,14.20
2018-07-17T03:58:37.148Z,14.30
2018-07-17T04:01:06.073Z,16.13
2018-07-17T04:03:34.854Z,13.83
2018-07-17T04:06:03.874Z,13.97
2018-07-17T04:08:32.722Z,16.50
2018-07-17T04:11:01.603Z,20.33
2018-07-17T04:13:30.381Z,18.27
2018-07-17T04:15:59.803Z,19.60
2018-07-17T04:18:28.562Z,16.73
2018-07-17T04:20:57.432Z,16.53
2018-07-17T04:23:26.219Z,15.60
2018-07-17T04:25:55.081Z,16.87
2018-07-17T04:28:23.927Z,17.77
2018-07-17T04:30:52.935Z,14.53
2018-07-17T04:33:21.921Z,15.10
2018-07-17T04:35:50.842Z,16.30
2018-07-17T04:38:19.703Z,15.23
2018-07-17T04:40:48.816Z,16.20
2018-07-17T04:43:17.735Z,16.50
2018-07-17T04:45:46.520Z,18.47
2018-07-17T04:48:15.385Z,22.30
2018-07-17T04:50:44.277Z,19.30
2018-07-17T04:53:13.171Z,16.10
2018-07-17T04:55:41.967Z,23.10
2018-07-17T04:58:10.814Z,15.83
2018-07-17T05:00:39.610Z,17.20
2018-07-17T05:03:08.826Z,13.50
2018-07-17T05:05:37.565Z,13.80
2018-07-17T05:08:06.903Z,16.97
2018-07-17T05:10:35.667Z,14.83
2018-07-17T05:13:04.568Z,14.23
2018-07-17T05:15:33.566Z,14.53
2018-07-17T05:18:02.352Z,16.70
2018-07-17T05:20:31.156Z,18.27
2018-07-17T05:22:59.979Z,16.90
2018-07-17T05:25:28.991Z,16.30
2018-07-17T05:27:57.843Z,22.30
2018-07-17T05:30:26.743Z,16.40
2018-07-17T05:32:55.522Z,21.93
2018-07-17T05:35:24.415Z,15.93
2018-07-17T05:37:53.418Z,16.27
2018-07-17T05:40:22.194Z,22.73
2018-07-17T05:42:51.224Z,15.30
2018-07-17T05:45:20.035Z,20.93
2018-07-17T05:47:48.791Z,21.90
2018-07-17T05:50:17.725Z,14.27
2018-07-17T05:52:46.597Z,16.27
2018-07-17T05:55:15.406Z,16.53
2018-07-17T05:57:44.221Z,18.17
2018-07-17T06:00:13.143Z,18.03
2018-07-17T06:02:41.942Z,24.43
2018-07-17T06:05:17.053Z,15.53
2018-07-17T06:07:45.895Z,15.80
2018-07-17T06:10:15.760Z,16.10
2018-07-17T06:12:44.741Z,15.87
2018-07-17T06:15:13.902Z,18.37
2018-07-17T06:17:42.827Z,20.43
2018-07-17T06:20:11.659Z,14.80
2018-07-17T06:22:40.825Z,20.50
2018-07-17T06:25:10.591Z,15.77
2018-07-17T06:27:39.425Z,15.27
2018-07-17T06:30:09.240Z,14.80
2018-07-17T06:32:38.178Z,18.93
2018-07-17T06:35:07.460Z,17.43
2018-07-17T06:37:42.958Z,21.10
2018-07-17T06:40:11.735Z,16.17
2018-07-17T06:42:40.737Z,22.43
2018-07-17T06:45:09.567Z,21.30
2018-07-17T06:47:38.343Z,15.77
2018-07-17T06:50:07.250Z,15.50
2018-07-17T06:52:36.861Z,15.20
2018-07-17T06:55:05.726Z,17.23
2018-07-17T06:57:35.350Z,23.10
2018-07-17T07:00:05.614Z,21.90
2018-07-17T07:02:34.460Z,23.00
2018-07-17T07:05:03.362Z,19.63
2018-07-17T07:07:32.302Z,20.43
2018-07-17T07:10:01.346Z,18.10
2018-07-17T07:12:30.158Z,20.63
2018-07-17T07:14:58.969Z,18.90
2018-07-17T10:18:46.254Z,14.37
2018-07-17T10:21:15.098Z,14.80
2018-07-17T10:23:43.952Z,13.17
2018-07-17T10:26:12.771Z,14.77
2018-07-17T10:28:41.578Z,14.87
2018-07-17T10:31:10.398Z,17.53
2018-07-17T10:33:39.252Z,15.60
2018-07-17T10:36:08.064Z,13.20
2018-07-17T10:38:36.862Z,13.27
2018-07-17T10:41:06.706Z,17.20
2018-07-17T10:43:35.596Z,17.17
2018-07-17T10:46:06.613Z,13.40
2018-07-17T10:48:36.380Z,14.30
2018-07-17T10:51:05.481Z,12.17
2018-07-17T10:53:44.561Z,12.10
2018-07-17T10:56:13.356Z,9.70
2018-07-17T10:58:42.149Z,5.40
2018-07-17T11:01:10.994Z,4.63
2018-07-17T11:03:39.826Z,6.87
2018-07-17T11:06:08.671Z,4.67
2018-07-17T11:08:37.469Z,6.33
2018-07-17T11:11:06.888Z,4.77
2018-07-17T11:13:35.712Z,3.57
2018-07-17T11:16:04.886Z,6.03
2018-07-17T11:18:33.691Z,6.10
2018-07-17T11:21:02.595Z,4.83
2018-07-17T11:23:31.833Z,4.37
2018-07-17T11:26:00.678Z,5.57
2018-07-17T11:28:29.434Z,3.80
2018-07-17T11:30:58.898Z,4.43
2018-07-17T11:33:27.713Z,3.60
2018-07-17T11:35:56.519Z,5.07
2018-07-17T11:38:25.349Z,5.60
2018-07-17T11:40:54.629Z,8.57
2018-07-17T11:43:23.581Z,7.93
2018-07-17T11:45:52.585Z,7.17
2018-07-17T11:48:21.390Z,4.27
2018-07-17T11:50:50.229Z,7.70
2018-07-17T11:53:19.039Z,7.53
2018-07-17T11:55:48.083Z,8.50
2018-07-17T11:58:16.926Z,8.07
2018-07-17T12:00:45.818Z,6.73
2018-07-17T12:03:14.634Z,7.73
2018-07-17T12:05:43.420Z,8.90
2018-07-17T12:08:12.250Z,8.50
2018-07-17T12:10:41.083Z,8.03
2018-07-17T12:13:10.241Z,10.93
2018-07-17T12:15:39.004Z,10.23
2018-07-17T12:18:07.806Z,7.33
2018-07-17T12:20:36.869Z,7.37
2018-07-17T12:23:05.825Z,12.57
2018-07-17T12:25:34.637Z,6.97
2018-07-17T12:28:03.526Z,9.93
2018-07-17T12:30:32.496Z,7.53
2018-07-17T12:33:01.790Z,7.87
2018-07-17T12:35:30.701Z,7.37
2018-07-17T12:37:59.474Z,8.13
2018-07-17T12:40:28.282Z,11.30
2018-07-17T12:42:57.082Z,8.47
2018-07-17T12:45:25.904Z,9.30
2018-07-17T12:47:54.706Z,7.57
2018-07-17T12:50:23.601Z,6.73
2018-07-17T12:52:52.793Z,8.60
2018-07-17T12:55:21.596Z,6.10
2018-07-17T12:57:50.584Z,8.03
2018-07-17T13:00:19.413Z,6.90
2018-07-17T13:02:49.133Z,6.67
2018-07-17T13:05:18.185Z,8.53
2018-07-17T13:07:47.162Z,5.97
2018-07-17T13:10:15.970Z,12.23
2018-07-17T13:12:44.830Z,6.17
2018-07-17T13:15:13.694Z,7.77
2018-07-17T13:17:42.933Z,5.47
2018-07-17T13:20:11.865Z,7.77
2018-07-17T13:22:42.429Z,7.07
2018-07-17T13:25:12.010Z,5.10
2018-07-17T13:27:41.436Z,5.43
2018-07-17T13:30:11.493Z,8.33
2018-07-17T13:32:41.329Z,7.70
2018-07-17T13:35:11.113Z,6.17
2018-07-17T13:37:40.048Z,6.40
2018-07-17T13:40:09.608Z,6.43
2018-07-17T13:42:38.427Z,6.27
2018-07-17T13:45:12.115Z,8.10
2018-07-17T13:47:41.603Z,6.57
2018-07-17T13:50:10.803Z,7.40
2018-07-17T13:52:40.399Z,10.30
2018-07-17T13:55:09.946Z,8.43
2018-07-17T13:57:39.497Z,9.73
2018-07-17T14:00:08.886Z,7.23
2018-07-17T14:02:37.714Z,10.73
2018-07-17T14:05:07.134Z,6.50
2018-07-17T14:07:36.014Z,6.00
2018-07-17T14:10:05.048Z,10.43
2018-07-17T14:12:33.846Z,6.97
2018-07-17T14:15:02.816Z,5.37
2018-07-17T14:17:31.770Z,4.80
2018-07-17T14:20:00.734Z,5.00
2018-07-17T14:22:29.613Z,6.03
2018-07-17T14:24:58.397Z,8.00
2018-07-17T14:27:27.205Z,8.47
2018-07-17T14:29:56.038Z,4.70
2018-07-17T14:32:24.883Z,5.03
2018-07-17T14:34:53.778Z,6.20
2018-07-17T14:37:23.778Z,5.87
2018-07-17T14:39:52.590Z,6.53
2018-07-17T14:42:21.428Z,8.30
2018-07-17T14:44:50.268Z,5.20
2018-07-17T14:47:19.978Z,5.03
2018-07-17T14:49:48.834Z,5.33
2018-07-17T14:52:17.917Z,3.30
2018-07-17T14:54:46.780Z,3.73
2018-07-17T14:57:15.686Z,5.43
2018-07-17T14:59:44.654Z,3.77
2018-07-17T15:02:13.844Z,4.03
2018-07-17T15:04:42.646Z,7.03
2018-07-17T15:07:11.478Z,5.23
2018-07-17T15:09:40.340Z,4.30
2018-07-17T15:12:09.281Z,4.60
2018-07-17T15:14:38.015Z,3.10
2018-07-17T15:17:06.929Z,3.70
2018-07-17T15:19:36.387Z,5.60
2018-07-17T15:22:05.229Z,5.93
2018-07-17T15:24:34.011Z,5.43
2018-07-17T15:27:02.773Z,4.20
2018-07-17T15:29:31.719Z,3.77
2018-07-17T15:32:00.664Z,5.00
2018-07-17T15:34:29.581Z,4.97
2018-07-17T15:36:58.496Z,5.70
2018-07-17T15:39:27.359Z,4.57
2018-07-17T15:41:56.155Z,4.60
2018-07-17T15:44:25.035Z,8.90
2018-07-17T15:46:54.416Z,4.97
2018-07-17T15:49:23.325Z,4.10
2018-07-17T15:51:52.259Z,6.50
2018-07-17T15:54:21.158Z,5.87
2018-07-17T15:56:50.342Z,4.27
2018-07-17T15:59:19.134Z,4.30
2018-07-17T16:01:48.337Z,4.60
2018-07-17T16:04:17.170Z,4.87
2018-07-17T16:06:46.064Z,5.93
2018-07-17T16:09:14.944Z,4.17
2018-07-17T16:11:44.137Z,5.97
2018-07-17T16:14:13.419Z,7.57
2018-07-17T16:16:42.002Z,5.40
2018-07-17T16:19:11.773Z,5.33
2018-07-17T16:21:41.808Z,6.47
2018-07-17T16:24:10.673Z,4.47
2018-07-17T16:26:40.408Z,6.17
2018-07-17T16:29:09.354Z,4.93
2018-07-17T16:31:38.226Z,4.43
2018-07-17T16:34:08.042Z,7.63
2018-07-17T16:36:36.953Z,9.33
2018-07-17T16:39:08.029Z,4.40
2018-07-17T16:41:36.816Z,6.07
2018-07-17T16:44:05.617Z,5.13
2018-07-17T16:46:34.427Z,5.00
2018-07-17T16:49:03.280Z,7.00
2018-07-17T16:51:32.118Z,5.90
2018-07-17T16:54:00.981Z,4.97
2018-07-17T16:56:30.014Z,6.50
2018-07-17T16:58:58.892Z,5.17
2018-07-17T17:01:27.680Z,4.40
2018-07-17T17:03:56.468Z,5.20
2018-07-17T17:06:25.364Z,6.63
2018-07-17T17:08:54.234Z,6.93
2018-07-17T17:11:23.168Z,5.30
2018-07-17T17:13:51.996Z,5.27
2018-07-17T17:16:20.806Z,5.30
2018-07-17T17:18:49.649Z,5.20
2018-07-17T17:21:18.663Z,6.03
2018-07-17T17:23:47.497Z,9.07
2018-07-17T17:26:16.440Z,5.43
2018-07-17T17:28:45.276Z,6.40
2018-07-17T17:31:14.176Z,5.10
2018-07-17T17:33:42.994Z,4.87
2018-07-17T17:36:11.905Z,9.10
2018-07-17T17:38:40.824Z,9.33
2018-07-17T17:41:09.596Z,8.83
2018-07-17T17:43:38.373Z,5.90
2018-07-17T17:46:07.181Z,5.03
2018-07-17T17:48:36.021Z,9.03
2018-07-17T17:51:04.855Z,5.17
2018-07-17T17:53:33.708Z,4.70
2018-07-17T17:56:02.520Z,5.90
2018-07-17T17:58:31.331Z,6.27
2018-07-17T18:01:00.330Z,6.27
2018-07-17T18:03:29.189Z,5.40
2018-07-17T18:05:58.037Z,6.03
2018-07-17T18:08:26.806Z,5.63
2018-07-17T18:10:55.664Z,6.10
2018-07-17T18:13:24.454Z,8.67
2018-07-17T18:15:53.409Z,5.27
2018-07-17T18:18:22.212Z,6.33
2018-07-17T18:20:51.011Z,11.63
2018-07-17T18:23:19.955Z,8.17
2018-07-17T18:25:48.814Z,6.93
2018-07-17T18:28:17.706Z,7.30
2018-07-17T18:30:56.658Z,8.63
2018-07-17T18:33:25.608Z,6.93
2018-07-17T18:35:54.411Z,7.50
2018-07-17T18:38:23.284Z,8.60
2018-07-17T18:40:52.077Z,6.57
2018-07-17T18:43:20.901Z,8.43
2018-07-17T18:45:49.707Z,7.13
2018-07-17T18:48:18.548Z,7.30
2018-07-17T18:50:47.595Z,7.33
2018-07-17T18:53:16.415Z,6.90
2018-07-17T18:55:45.220Z,7.63
2018-07-17T18:58:14.075Z,12.33
2018-07-17T19:00:43.539Z,7.93
2018-07-17T19:03:12.846Z,8.57
2018-07-17T19:05:42.075Z,7.97
2018-07-17T19:08:11.314Z,7.67
2018-07-17T19:10:40.098Z,8.50
2018-07-17T19:13:08.882Z,8.07
2018-07-17T19:15:38.002Z,8.20
2018-07-17T19:18:06.779Z,8.00
2018-07-17T19:20:35.721Z,8.50
2018-07-17T19:23:04.576Z,7.60
2018-07-17T19:25:35.032Z,8.40
2018-07-17T19:28:03.864Z,12.17
2018-07-17T19:30:32.722Z,10.00
2018-07-17T19:33:01.517Z,7.60
2018-07-17T19:35:34.176Z,8.10
2018-07-17T19:38:03.392Z,7.17
2018-07-17T19:40:32.248Z,8.80
2018-07-17T19:43:01.227Z,8.27
2018-07-17T19:45:31.422Z,8.33
2018-07-17T19:48:00.324Z,7.40
2018-07-17T19:50:29.188Z,8.43
2018-07-17T19:52:58.058Z,9.47
2018-07-17T19:55:27.055Z,12.87
2018-07-17T19:57:55.946Z,7.53
2018-07-17T20:00:24.922Z,6.80
2018-07-17T20:02:53.771Z,8.30
2018-07-17T20:05:22.574Z,6.47
2018-07-17T20:07:51.360Z,7.30
2018-07-17T20:10:20.285Z,5.73
2018-07-17T20:12:49.089Z,6.73
2018-07-17T20:15:18.169Z,5.83
2018-07-17T20:17:47.440Z,6.50
2018-07-17T20:20:16.268Z,8.03
2018-07-17T20:22:45.229Z,8.07
2018-07-17T20:25:14.113Z,6.00
2018-07-17T20:27:42.974Z,7.90
2018-07-17T20:30:11.840Z,8.63
2018-07-17T20:32:40.687Z,8.43
2018-07-17T20:35:09.528Z,8.20
2018-07-17T20:37:38.417Z,10.33
2018-07-17T20:40:07.275Z,9.73
2018-07-17T20:42:36.075Z,9.77
2018-07-17T20:45:05.020Z,10.23
2018-07-17T20:47:33.879Z,12.83
2018-07-17T20:50:02.706Z,11.03
2018-07-17T20:52:31.596Z,11.73
2018-07-17T20:55:00.484Z,12.07
2018-07-17T20:57:29.729Z,12.93
2018-07-17T20:59:58.619Z,14.30
2018-07-17T21:02:27.477Z,15.00
2018-07-17T21:04:56.333Z,15.07
2018-07-17T21:07:25.331Z,17.10
2018-07-17T21:09:54.136Z,16.17
2018-07-17T21:12:22.988Z,16.23
2018-07-17T21:14:51.842Z,16.57
2018-07-17T21:17:20.777Z,16.70
2018-07-17T21:19:49.776Z,16.50
2018-07-17T21:22:18.578Z,17.37
2018-07-17T21:24:47.542Z,17.97
2018-07-17T21:27:16.377Z,17.50
2018-07-17T21:29:45.199Z,19.07
2018-07-17T21:32:14.029Z,17.40
2018-07-17T21:34:42.869Z,18.93
2018-07-17T21:37:12.680Z,18.57
2018-07-17T21:39:41.701Z,19.93
2018-07-17T21:42:10.593Z,18.47
2018-07-17T21:44:39.449Z,19.70
2018-07-17T21:47:08.276Z,18.47
2018-07-17T21:49:37.236Z,18.80
2018-07-17T21:52:06.229Z,19.77
2018-07-17T21:54:35.093Z,22.77
2018-07-17T21:57:03.923Z,20.27
2018-07-17T21:59:32.784Z,20.83
2018-07-17T22:02:01.671Z,21.50
2018-07-17T22:04:30.457Z,20.30
2018-07-17T22:06:59.503Z,20.37
2018-07-17T22:09:28.312Z,22.40
2018-07-17T22:11:57.201Z,20.13
2018-07-17T22:14:26.026Z,22.70
2018-07-17T22:16:54.838Z,23.13
2018-07-17T22:19:24.396Z,23.77
2018-07-17T22:21:53.264Z,22.90
2018-07-17T22:24:22.115Z,26.07
2018-07-17T22:26:50.952Z,22.20
2018-07-17T22:29:19.772Z,22.27
2018-07-17T22:31:48.635Z,21.00
2018-07-17T22:34:17.429Z,21.77
2018-07-17T22:36:46.242Z,23.77
2018-07-17T22:39:15.220Z,23.50
2018-07-17T22:41:44.032Z,22.07
2018-07-17T22:44:12.839Z,22.83
2018-07-17T22:46:41.712Z,24.60
2018-07-17T22:49:11.567Z,22.53
2018-07-17T22:51:40.776Z,25.70
2018-07-17T22:54:09.660Z,23.13
2018-07-17T22:56:38.507Z,24.57
2018-07-17T22:59:07.383Z,26.63
2018-07-17T23:01:36.208Z,23.87
2018-07-17T23:04:05.095Z,24.97
2018-07-17T23:06:33.876Z,25.27
2018-07-17T23:09:02.827Z,25.07
2018-07-17T23:11:31.633Z,24.17
2018-07-17T23:14:00.448Z,24.40
2018-07-17T23:16:29.270Z,24.50
2018-07-17T23:18:58.067Z,25.77
2018-07-17T23:21:26.928Z,25.87
2018-07-17T23:23:55.758Z,25.77
2018-07-17T23:26:24.617Z,24.17
2018-07-17T23:28:53.432Z,25.50
2018-07-17T23:31:22.249Z,26.30
2018-07-17T23:33:51.112Z,26.47
2018-07-17T23:36:19.940Z,29.23
2018-07-17T23:38:48.761Z,26.60
2018-07-17T23:41:17.613Z,26.40
2018-07-17T23:43:46.480Z,27.10
2018-07-17T23:46:15.342Z,26.23
2018-07-17T23:48:44.170Z,27.77
2018-07-17T23:51:12.966Z,26.80
2018-07-17T23:53:41.775Z,25.47
2018-07-17T23:56:10.938Z,25.90
2018-07-17T23:58:39.861Z,26.00
